createdAt,value
2022-09-28T00:01:22.115Z,100.00
2022-09-28T00:03:51.998Z,100.00
2022-09-28T00:06:22.579Z,100.00
2022-09-28T00:08:52.214Z,100.00
2022-09-28T00:11:21.011Z,100.00
2022-09-28T00:13:53.780Z,100.00
2022-09-28T00:16:24.024Z,100.00
2022-09-28T00:18:51.532Z,100.00
2022-09-28T00:21:23.929Z,100.00
2022-09-28T00:24:15.255Z,100.00
2022-09-28T00:27:01.730Z,100.00
2022-09-28T00:29:32.266Z,100.00
2022-09-28T00:32:05.856Z,100.00
2022-09-28T00:34:36.016Z,100.00
2022-09-28T00:37:05.239Z,100.00
2022-09-28T00:39:32.243Z,100.00
2022-09-28T00:42:00.626Z,100.00
2022-09-28T00:44:37.853Z,100.00
2022-09-28T00:47:16.214Z,100.00
2022-09-28T00:49:56.859Z,100.00
2022-09-28T00:52:47.647Z,100.00
2022-09-28T00:55:23.270Z,100.00
2022-09-28T00:57:56.254Z,100.00
2022-09-28T01:00:24.666Z,100.00
2022-09-28T01:02:51.953Z,100.00
2022-09-28T01:05:20.833Z,100.00
2022-09-28T01:07:49.077Z,100.00
2022-09-28T01:10:17.033Z,100.00
2022-09-28T01:12:45.012Z,100.00
2022-09-28T01:15:12.209Z,100.00
2022-09-28T01:17:43.050Z,100.00
2022-09-28T01:20:40.609Z,100.00
2022-09-28T01:23:09.524Z,100.00
2022-09-28T01:25:55.299Z,100.00
2022-09-28T01:28:28.238Z,100.00
2022-09-28T01:31:03.363Z,100.00
2022-09-28T01:33:45.178Z,100.00
2022-09-28T01:36:19.767Z,100.00
2022-09-28T01:38:53.180Z,100.00
2022-09-28T01:41:22.943Z,100.00
2022-09-28T01:43:57.878Z,100.00
2022-09-28T01:46:34.695Z,100.00
2022-09-28T01:49:09.808Z,100.00
2022-09-28T01:51:51.280Z,100.00
2022-09-28T01:54:27.070Z,100.00
2022-09-28T01:57:15.976Z,100.00
2022-09-28T01:59:53.677Z,100.00
2022-09-28T02:02:27.591Z,100.00
2022-09-28T02:05:09.320Z,100.00
2022-09-28T02:07:46.316Z,100.00
2022-09-28T02:10:20.331Z,100.00
2022-09-28T02:12:54.290Z,100.00
2022-09-28T02:15:30.851Z,100.00
2022-09-28T02:18:02.554Z,100.00
2022-09-28T02:20:34.097Z,100.00
2022-09-28T02:23:04.946Z,100.00
2022-09-28T02:25:51.882Z,100.00
2022-09-28T02:28:21.971Z,100.00
2022-09-28T02:30:51.260Z,100.00
2022-09-28T02:33:36.627Z,100.00
2022-09-28T02:36:04.315Z,100.00
2022-09-28T02:38:37.316Z,100.00
2022-09-28T02:41:14.412Z,100.00
2022-09-28T02:43:47.587Z,100.00
2022-09-28T02:46:55.249Z,100.00
2022-09-28T02:49:44.427Z,100.00
2022-09-28T02:52:49.270Z,100.00
2022-09-28T02:55:40.896Z,100.00
2022-09-28T02:58:37.581Z,100.00
2022-09-28T03:01:30.484Z,100.00
2022-09-28T03:04:06.250Z,100.00
2022-09-28T03:06:57.113Z,100.00
2022-09-28T03:09:43.145Z,100.00
2022-09-28T03:12:14.242Z,100.00
2022-09-28T03:14:42.042Z,100.00
2022-09-28T03:17:09.261Z,100.00
2022-09-28T03:19:37.487Z,100.00
2022-09-28T03:22:05.799Z,100.00
2022-09-28T03:24:33.865Z,100.00
2022-09-28T03:27:03.000Z,100.00
2022-09-28T03:29:31.624Z,100.00
2022-09-28T03:32:03.001Z,100.00
2022-09-28T03:34:29.958Z,100.00
2022-09-28T03:36:57.225Z,100.00
2022-09-28T03:39:24.691Z,100.00
2022-09-28T03:41:51.671Z,100.00
2022-09-28T03:44:21.124Z,100.00
2022-09-28T03:46:48.888Z,100.00
2022-09-28T03:49:16.024Z,100.00
2022-09-28T03:51:43.414Z,100.00
2022-09-28T03:54:10.599Z,100.00
2022-09-28T03:56:37.559Z,100.00
2022-09-28T03:59:05.337Z,100.00
2022-09-28T04:01:32.461Z,100.00
2022-09-28T04:03:59.845Z,100.00
2022-09-28T04:06:27.334Z,100.00
2022-09-28T04:08:54.481Z,100.00
2022-09-28T04:11:21.967Z,100.00
2022-09-28T04:13:50.181Z,100.00
2022-09-28T04:16:18.665Z,100.00
2022-09-28T04:18:55.810Z,100.00
2022-09-28T04:21:41.652Z,100.00
2022-09-28T04:24:12.507Z,100.00
2022-09-28T04:26:39.631Z,100.00
2022-09-28T04:29:18.484Z,100.00
2022-09-28T04:31:56.644Z,100.00
2022-09-28T04:34:37.124Z,100.00
2022-09-28T04:37:06.207Z,100.00
2022-09-28T04:39:34.435Z,100.00
2022-09-28T04:42:02.815Z,100.00
2022-09-28T04:44:29.833Z,100.00
2022-09-28T04:47:04.932Z,100.00
2022-09-28T04:49:35.801Z,100.00
2022-09-28T04:52:18.987Z,100.00
2022-09-28T04:54:48.916Z,100.00
2022-09-28T04:57:16.728Z,100.00
2022-09-28T04:59:43.973Z,100.00
2022-09-28T05:02:12.194Z,100.00
2022-09-28T05:04:59.229Z,100.00
2022-09-28T05:07:36.307Z,100.00
2022-09-28T05:10:06.448Z,100.00
2022-09-28T05:12:34.279Z,100.00
2022-09-28T05:15:01.464Z,100.00
2022-09-28T05:17:31.024Z,100.00
2022-09-28T05:20:20.666Z,100.00
2022-09-28T05:22:47.642Z,100.00
2022-09-28T05:25:14.708Z,100.00
2022-09-28T05:28:01.934Z,100.00
2022-09-28T05:30:38.870Z,100.00
2022-09-28T05:33:28.125Z,100.00
2022-09-28T05:36:13.719Z,100.00
2022-09-28T05:38:42.523Z,100.00
2022-09-28T05:41:09.657Z,100.00
2022-09-28T05:43:36.983Z,100.00
2022-09-28T05:46:06.539Z,100.00
2022-09-28T05:48:36.539Z,100.00
2022-09-28T05:51:03.914Z,100.00
2022-09-28T05:53:30.983Z,100.00
2022-09-28T05:55:59.848Z,100.00
2022-09-28T05:58:28.649Z,100.00
2022-09-28T06:00:57.037Z,100.00
2022-09-28T06:03:25.199Z,100.00
2022-09-28T06:05:53.223Z,100.00
2022-09-28T06:08:20.710Z,100.00
2022-09-28T06:11:01.271Z,100.00
2022-09-28T06:13:29.518Z,100.00
2022-09-28T06:15:56.745Z,100.00
2022-09-28T06:18:23.910Z,100.00
2022-09-28T06:21:13.301Z,100.00
2022-09-28T06:23:49.234Z,100.00
2022-09-28T06:26:18.086Z,100.00
2022-09-28T06:28:45.807Z,99.72
2022-09-28T06:31:13.877Z,99.78
2022-09-28T06:33:46.361Z,100.00
2022-09-28T06:36:13.951Z,99.84
2022-09-28T06:38:41.007Z,99.61
2022-09-28T06:41:09.280Z,99.55
2022-09-28T06:43:39.702Z,99.55
2022-09-28T06:46:14.480Z,99.39
2022-09-28T06:48:49.033Z,99.40
2022-09-28T06:51:28.382Z,99.62
2022-09-28T06:53:58.123Z,98.95
2022-09-28T06:56:39.137Z,98.65
2022-09-28T06:59:06.899Z,98.79
2022-09-28T07:01:35.516Z,98.24
2022-09-28T07:04:43.307Z,97.83
2022-09-28T07:07:35.199Z,98.11
2022-09-28T07:10:15.140Z,98.25
2022-09-28T07:13:05.991Z,98.44
2022-09-28T07:16:13.513Z,98.06
2022-09-28T07:19:01.646Z,98.41
2022-09-28T07:22:01.845Z,98.76
2022-09-28T07:24:33.621Z,98.71
2022-09-28T07:27:41.237Z,98.26
2022-09-28T07:30:33.324Z,98.46
2022-09-28T07:33:25.541Z,98.70
2022-09-28T07:35:57.530Z,98.58
2022-09-28T07:38:28.378Z,98.96
2022-09-28T07:41:12.222Z,98.60
2022-09-28T07:43:51.046Z,98.74
2022-09-28T07:46:21.376Z,98.67
2022-09-28T07:48:56.886Z,99.13
2022-09-28T07:51:33.658Z,98.66
2022-09-28T07:54:21.006Z,98.83
2022-09-28T07:57:07.108Z,98.80
2022-09-28T07:59:54.992Z,98.54
2022-09-28T08:02:42.374Z,98.49
2022-09-28T08:05:10.783Z,98.28
2022-09-28T08:07:38.454Z,97.83
2022-09-28T08:10:09.367Z,97.20
2022-09-28T08:13:12.525Z,97.22
2022-09-28T08:16:03.590Z,97.06
2022-09-28T08:18:54.443Z,97.41
2022-09-28T08:21:42.094Z,97.28
2022-09-28T08:24:09.675Z,97.00
2022-09-28T08:26:37.047Z,96.50
2022-09-28T08:29:06.559Z,96.60
2022-09-28T08:31:52.105Z,96.48
2022-09-28T08:34:41.377Z,96.26
2022-09-28T08:37:38.058Z,96.02
2022-09-28T08:40:36.912Z,95.70
2022-09-28T08:43:45.843Z,95.09
2022-09-28T08:46:29.404Z,95.53
2022-09-28T08:49:47.829Z,95.29
2022-09-28T08:52:41.248Z,95.07
2022-09-28T08:55:35.336Z,95.00
2022-09-28T08:58:13.975Z,94.79
2022-09-28T09:00:51.191Z,94.36
2022-09-28T09:03:35.955Z,95.10
2022-09-28T09:06:47.820Z,95.36
2022-09-28T09:09:45.697Z,95.60
2022-09-28T09:12:32.290Z,95.08
2022-09-28T09:15:33.782Z,94.57
2022-09-28T09:18:30.359Z,93.82
2022-09-28T09:21:25.912Z,94.17
2022-09-28T09:24:03.911Z,93.75
2022-09-28T09:27:13.078Z,93.61
2022-09-28T09:30:06.425Z,93.07
2022-09-28T09:32:54.469Z,93.22
2022-09-28T09:35:37.608Z,93.28
2022-09-28T09:38:51.567Z,92.62
2022-09-28T09:41:32.140Z,92.73
2022-09-28T09:44:39.733Z,92.11
2022-09-28T09:47:43.888Z,91.97
2022-09-28T09:50:32.704Z,91.63
2022-09-28T09:53:21.020Z,90.78
2022-09-28T09:55:54.944Z,90.44
2022-09-28T09:58:38.585Z,90.87
2022-09-28T10:01:20.178Z,89.83
2022-09-28T10:05:04.978Z,89.75
2022-09-28T10:07:54.167Z,89.61
2022-09-28T10:10:45.677Z,89.67
2022-09-28T10:13:14.195Z,89.41
2022-09-28T10:15:43.477Z,89.60
2022-09-28T10:18:27.519Z,90.02
2022-09-28T10:21:21.267Z,89.45
2022-09-28T10:24:02.932Z,88.83
2022-09-28T10:26:37.685Z,87.92
2022-09-28T10:29:31.172Z,88.50
2022-09-28T10:31:58.412Z,88.05
2022-09-28T10:34:30.806Z,89.23
2022-09-28T10:37:09.922Z,88.46
2022-09-28T10:40:05.951Z,88.93
2022-09-28T10:42:36.308Z,88.96
2022-09-28T10:45:25.649Z,88.37
2022-09-28T10:47:52.962Z,88.41
2022-09-28T10:50:28.393Z,89.21
2022-09-28T10:53:20.653Z,89.01
2022-09-28T10:56:23.169Z,89.00
2022-09-28T10:59:03.531Z,88.68
2022-09-28T11:01:43.504Z,88.41
2022-09-28T11:04:22.872Z,87.86
2022-09-28T11:06:51.475Z,87.96
2022-09-28T11:09:33.782Z,88.58
2022-09-28T11:12:13.602Z,88.33
2022-09-28T11:14:43.801Z,88.83
2022-09-28T11:17:40.669Z,88.15
2022-09-28T11:20:27.526Z,87.75
2022-09-28T11:23:00.608Z,87.53
2022-09-28T11:25:33.271Z,87.20
2022-09-28T11:28:04.794Z,87.09
2022-09-28T11:30:45.237Z,87.11
2022-09-28T11:33:42.104Z,88.73
2022-09-28T11:36:38.254Z,88.66
2022-09-28T11:39:11.896Z,88.81
2022-09-28T11:42:01.538Z,88.64
2022-09-28T11:44:48.149Z,89.06
2022-09-28T11:47:35.714Z,89.49
2022-09-28T11:50:17.919Z,89.47
2022-09-28T11:52:50.260Z,89.13
2022-09-28T11:55:38.432Z,88.58
2022-09-28T11:58:24.902Z,89.75
2022-09-28T12:01:02.172Z,89.74
2022-09-28T12:03:50.874Z,89.48
2022-09-28T12:06:30.151Z,88.98
2022-09-28T12:09:07.285Z,89.22
2022-09-28T12:11:58.996Z,87.89
2022-09-28T12:14:47.148Z,88.87
2022-09-28T12:17:23.811Z,87.61
2022-09-28T12:20:01.824Z,87.24
2022-09-28T12:22:38.025Z,87.19
2022-09-28T12:25:13.634Z,86.48
2022-09-28T12:27:56.700Z,86.74
2022-09-28T12:30:27.918Z,85.78
2022-09-28T12:33:07.496Z,86.25
2022-09-28T12:35:52.729Z,86.43
2022-09-28T12:38:54.132Z,87.00
2022-09-28T12:41:50.153Z,87.39
2022-09-28T12:44:49.294Z,88.04
2022-09-28T12:47:57.323Z,87.91
2022-09-28T12:50:54.541Z,88.34
2022-09-28T12:53:44.878Z,88.44
2022-09-28T12:56:28.518Z,87.86
2022-09-28T12:59:32.234Z,88.35
2022-09-28T13:02:27.626Z,88.23
2022-09-28T13:04:54.941Z,88.32
2022-09-28T13:08:09.857Z,88.18
2022-09-28T13:10:50.455Z,87.75
2022-09-28T13:13:32.017Z,87.88
2022-09-28T13:16:17.644Z,88.21
2022-09-28T13:18:56.565Z,87.87
2022-09-28T13:21:32.097Z,87.70
2022-09-28T13:24:14.810Z,87.32
2022-09-28T13:26:48.725Z,86.90
2022-09-28T13:29:19.882Z,87.36
2022-09-28T13:31:52.095Z,87.86
2022-09-28T13:34:25.482Z,87.87
2022-09-28T13:37:20.051Z,88.64
2022-09-28T13:39:53.903Z,88.59
2022-09-28T13:42:24.092Z,89.38
2022-09-28T13:45:12.008Z,88.74
2022-09-28T13:47:44.657Z,87.92
2022-09-28T13:50:21.484Z,88.48
2022-09-28T13:52:54.738Z,88.33
2022-09-28T13:55:33.733Z,88.66
2022-09-28T13:58:53.285Z,88.93
2022-09-28T14:01:29.573Z,87.64
2022-09-28T14:04:15.229Z,87.47
2022-09-28T14:06:48.689Z,87.50
2022-09-28T14:09:36.013Z,86.16
2022-09-28T14:12:04.391Z,86.31
2022-09-28T14:14:52.099Z,87.78
2022-09-28T14:17:22.984Z,88.03
2022-09-28T14:20:02.791Z,87.22
2022-09-28T14:23:01.096Z,86.84
2022-09-28T14:25:32.076Z,86.05
2022-09-28T14:28:37.578Z,85.83
2022-09-28T14:31:28.204Z,84.94
2022-09-28T14:33:58.686Z,84.74
2022-09-28T14:36:56.550Z,84.78
2022-09-28T14:39:51.750Z,84.61
2022-09-28T14:42:23.032Z,84.46
2022-09-28T14:45:06.153Z,85.03
2022-09-28T14:47:41.748Z,84.35
2022-09-28T14:50:39.167Z,83.77
2022-09-28T14:53:12.308Z,84.05
2022-09-28T14:55:49.996Z,84.70
2022-09-28T14:58:25.106Z,84.72
2022-09-28T15:00:59.932Z,85.37
2022-09-28T15:03:30.760Z,86.87
2022-09-28T15:05:58.726Z,88.23
2022-09-28T15:08:36.652Z,88.79
2022-09-28T15:11:03.795Z,89.26
2022-09-28T15:13:31.003Z,89.63
2022-09-28T15:16:06.665Z,89.77
2022-09-28T15:19:17.694Z,90.49
2022-09-28T15:21:47.786Z,90.47
2022-09-28T15:24:34.912Z,90.76
2022-09-28T15:27:14.489Z,90.94
2022-09-28T15:29:41.850Z,91.23
2022-09-28T15:32:24.376Z,91.07
2022-09-28T15:34:51.686Z,91.35
2022-09-28T15:37:23.985Z,91.68
2022-09-28T15:39:52.735Z,90.99
2022-09-28T15:42:20.651Z,91.07
2022-09-28T15:45:22.250Z,91.00
2022-09-28T15:47:49.504Z,90.33
2022-09-28T15:50:27.267Z,90.52
2022-09-28T15:53:01.901Z,90.32
2022-09-28T15:55:33.679Z,90.10
2022-09-28T15:58:15.907Z,89.70
2022-09-28T16:00:46.866Z,88.96
2022-09-28T16:03:16.898Z,88.85
2022-09-28T16:05:46.905Z,88.79
2022-09-28T16:08:25.070Z,88.84
2022-09-28T16:11:07.601Z,89.11
2022-09-28T16:13:35.387Z,88.67
2022-09-28T16:16:05.456Z,88.55
2022-09-28T16:18:35.835Z,88.99
2022-09-28T16:21:38.255Z,87.69
2022-09-28T16:24:05.847Z,87.38
2022-09-28T16:26:36.037Z,87.61
2022-09-28T16:29:25.707Z,88.43
2022-09-28T16:31:53.330Z,86.94
2022-09-28T16:34:25.086Z,87.35
2022-09-28T16:36:53.157Z,87.06
2022-09-28T16:39:22.215Z,87.21
2022-09-28T16:41:56.176Z,87.18
2022-09-28T16:44:26.942Z,86.86
2022-09-28T16:46:57.579Z,87.83
2022-09-28T16:49:25.744Z,87.19
2022-09-28T16:51:52.831Z,87.35
2022-09-28T16:54:43.600Z,87.60
2022-09-28T16:57:13.612Z,87.77
2022-09-28T16:59:40.836Z,87.64
2022-09-28T17:05:13.600Z,88.28
2022-09-28T17:07:40.810Z,88.18
2022-09-28T17:10:50.003Z,88.43
2022-09-28T17:13:31.578Z,88.94
2022-09-28T17:15:59.507Z,88.67
2022-09-28T17:18:27.716Z,89.10
2022-09-28T17:20:58.070Z,89.02
2022-09-28T17:23:25.001Z,89.00
2022-09-28T17:25:54.603Z,89.39
2022-09-28T17:28:32.245Z,89.46
2022-09-28T17:30:59.433Z,90.24
2022-09-28T17:33:26.534Z,90.62
2022-09-28T17:36:01.696Z,90.34
2022-09-28T17:38:28.900Z,90.53
2022-09-28T17:40:55.977Z,90.90
2022-09-28T17:43:23.126Z,91.18
2022-09-28T17:45:50.851Z,91.60
2022-09-28T17:48:24.514Z,91.85
2022-09-28T17:51:03.929Z,92.22
2022-09-28T17:53:33.876Z,92.25
2022-09-28T17:56:01.472Z,92.36
2022-09-28T17:58:28.367Z,92.09
2022-09-28T18:00:55.475Z,92.99
2022-09-28T18:03:24.313Z,92.95
2022-09-28T18:06:07.889Z,93.52
2022-09-28T18:08:37.030Z,93.69
2022-09-28T18:11:04.475Z,93.86
2022-09-28T18:13:31.604Z,94.01
2022-09-28T18:15:59.138Z,94.21
2022-09-28T18:18:26.514Z,94.54
2022-09-28T18:20:53.699Z,94.76
2022-09-28T18:23:20.793Z,94.59
2022-09-28T18:25:48.426Z,94.84
2022-09-28T18:28:16.344Z,95.32
2022-09-28T18:30:45.633Z,95.51
2022-09-28T18:33:15.007Z,94.93
2022-09-28T18:35:52.186Z,95.24
2022-09-28T18:38:20.223Z,95.90
2022-09-28T18:40:48.579Z,95.62
2022-09-28T18:43:16.752Z,95.50
2022-09-28T18:45:43.981Z,96.05
2022-09-28T18:48:11.176Z,95.13
2022-09-28T18:50:38.380Z,95.42
2022-09-28T18:53:14.694Z,95.26
2022-09-28T18:55:43.441Z,95.18
2022-09-28T18:58:11.781Z,95.36
2022-09-28T19:00:41.768Z,95.52
2022-09-28T19:03:11.893Z,95.39
2022-09-28T19:05:43.819Z,95.51
2022-09-28T19:08:10.907Z,95.59
2022-09-28T19:10:38.150Z,96.16
2022-09-28T19:13:05.243Z,96.00
2022-09-28T19:15:34.846Z,95.95
2022-09-28T19:18:02.596Z,95.98
2022-09-28T19:20:29.858Z,95.98
2022-09-28T19:22:57.217Z,96.36
2022-09-28T19:25:24.428Z,96.61
2022-09-28T19:27:52.112Z,96.44
2022-09-28T19:30:19.370Z,96.60
2022-09-28T19:32:46.352Z,97.01
2022-09-28T19:35:13.953Z,96.80
2022-09-28T19:37:42.337Z,96.83
2022-09-28T19:40:10.617Z,96.92
2022-09-28T19:42:42.682Z,97.29
2022-09-28T19:45:11.397Z,97.51
2022-09-28T19:47:39.119Z,97.62
2022-09-28T19:50:06.992Z,97.62
2022-09-28T19:52:34.019Z,97.76
2022-09-28T19:55:01.352Z,97.47
2022-09-28T19:57:32.896Z,97.91
2022-09-28T20:00:03.492Z,97.91
2022-09-28T20:02:34.898Z,98.07
2022-09-28T20:05:03.038Z,98.04
2022-09-28T20:07:33.217Z,98.32
2022-09-28T20:10:00.403Z,98.28
2022-09-28T20:12:27.482Z,98.45
2022-09-28T20:14:55.081Z,98.46
2022-09-28T20:17:22.745Z,98.24
2022-09-28T20:19:52.145Z,98.08
2022-09-28T20:22:20.352Z,98.25
2022-09-28T20:24:47.849Z,98.30
2022-09-28T20:27:15.622Z,97.69
2022-09-28T20:29:43.273Z,98.24
2022-09-28T20:32:12.039Z,97.74
2022-09-28T20:34:39.571Z,98.24
2022-09-28T20:37:06.620Z,98.25
2022-09-28T20:39:34.727Z,97.98
2022-09-28T20:42:02.348Z,97.53
2022-09-28T20:44:29.377Z,97.48
2022-09-28T20:46:56.857Z,96.24
2022-09-28T20:49:24.772Z,96.69
2022-09-28T20:51:52.063Z,96.57
2022-09-28T20:54:22.221Z,96.56
2022-09-28T20:56:49.218Z,96.58
2022-09-28T20:59:16.431Z,96.54
2022-09-28T21:01:43.536Z,96.74
2022-09-28T21:04:11.206Z,96.96
2022-09-28T21:06:41.347Z,96.85
2022-09-28T21:09:09.986Z,95.27
2022-09-28T21:11:37.944Z,96.48
2022-09-28T21:14:08.239Z,96.32
2022-09-28T21:16:35.849Z,96.15
2022-09-28T21:19:03.704Z,96.30
2022-09-28T21:21:30.896Z,96.93
2022-09-28T21:23:58.829Z,97.26
2022-09-28T21:26:28.107Z,96.92
2022-09-28T21:29:07.504Z,96.66
2022-09-28T21:31:48.032Z,96.51
2022-09-28T21:34:21.756Z,96.51
2022-09-28T21:36:51.468Z,96.73
2022-09-28T21:39:20.243Z,96.69
2022-09-28T21:41:49.437Z,96.65
2022-09-28T21:44:17.066Z,96.80
2022-09-28T21:46:45.086Z,97.34
2022-09-28T21:49:14.512Z,97.78
2022-09-28T21:51:41.620Z,97.83
2022-09-28T21:54:14.583Z,97.75
2022-09-28T21:56:46.758Z,97.89
2022-09-28T21:59:18.621Z,98.15
2022-09-28T22:01:48.444Z,98.26
2022-09-28T22:04:17.305Z,98.30
2022-09-28T22:06:45.196Z,98.15
2022-09-28T22:09:14.149Z,98.07
2022-09-28T22:11:43.105Z,98.28
2022-09-28T22:14:10.830Z,98.11
2022-09-28T22:16:38.022Z,98.50
2022-09-28T22:19:05.074Z,99.01
2022-09-28T22:21:35.142Z,98.77
2022-09-28T22:24:04.041Z,98.62
2022-09-28T22:26:32.863Z,98.70
2022-09-28T22:29:02.268Z,99.09
2022-09-28T22:31:32.695Z,98.84
2022-09-28T22:33:59.887Z,98.46
2022-09-28T22:36:27.313Z,98.54
2022-09-28T22:38:55.302Z,98.82
2022-09-28T22:41:22.831Z,98.59
2022-09-28T22:43:53.323Z,98.77
2022-09-28T22:46:23.849Z,98.88
2022-09-28T22:48:57.115Z,98.89
2022-09-28T22:51:27.065Z,98.72
2022-09-28T22:53:54.730Z,98.84
2022-09-28T22:56:34.067Z,98.49
2022-09-28T22:59:02.499Z,98.33
2022-09-28T23:01:30.205Z,98.65
2022-09-28T23:03:57.963Z,98.92
2022-09-28T23:06:27.026Z,99.50
2022-09-28T23:08:54.507Z,99.30
2022-09-28T23:11:21.460Z,99.38
2022-09-28T23:13:52.736Z,99.68
2022-09-28T23:16:23.730Z,99.02
2022-09-28T23:18:51.707Z,99.06
2022-09-28T23:21:21.946Z,98.86
2022-09-28T23:23:54.061Z,98.44
2022-09-28T23:26:28.477Z,97.55
2022-09-28T23:28:57.661Z,97.09
2022-09-28T23:31:28.670Z,96.71
2022-09-28T23:34:01.693Z,96.94
2022-09-28T23:36:29.207Z,97.56
2022-09-28T23:38:57.930Z,96.73
2022-09-28T23:41:28.425Z,96.82
2022-09-28T23:43:56.075Z,97.13
2022-09-28T23:46:23.177Z,97.16
2022-09-28T23:48:50.626Z,96.93
2022-09-28T23:51:17.917Z,96.65
2022-09-28T23:53:46.121Z,96.31
2022-09-28T23:56:14.582Z,96.64
2022-09-28T23:58:41.949Z,96.11
